Barrow, Barrow Airport (PABR)

NameBarrow Airport
CityBarrow
CountryUnited States
ICAOPABR
IATABRW
Altitude16 m
CoordinatesGoogle Map
Live Air TrafficLiveATC.net
METARPABR 152053Z 15009KT 10SM CLR M29/M32 A2966
2018-12-15 20:53:00 Wind: Southeast (150°) 4.63 m/s - Visibility: 16093.4 m - Temperature: -29 °C - Dew point: -32 °C - Humidity: 75.2% - Pressure: 1004.4 hPa

Sorry, no flights used the airport in this database.